• Join FlightAware (Why Join?)
  • Login
  • US Flag 
Rudolph Flight #1: Arrived! 
12:00PM EST


 

Airport Tracker/Info


-or-


 

Live Flight TrackerFlight Track Log ✈ TGW275 ✈ 03-May-2013 ✈ YCFS - YSSY / SYD

Flight Track Log - Related Links

Times and Time Zones

All times are in EDT time to prevent confusion due to time zone crossing. See the TGW275 flight status page for this flight to view local times or setup timezone preferences in your user account.

Time Position Orientation Groundspeed Altitude Reporting Facility
EDT Latitude Longitude Course Direction KTS MPH feet Rate Location/Type
02:01AM -30.3122 153.1172 222° Southwest 19,000  Level Aus ATC (Calculated)
02:02AM -30.4343 152.9817 220° Southwest 19,000 -2,340 Level Aus ATC (Calculated)
02:03AM -30.4515 152.9625 224° Southwest  Level FlightAware Approximate
02:03AM -30.4343 152.9817 220° Southwest 19,000  Level Aus ATC (Calculated)
02:04AM -30.5563 152.8459 47° Northeast 19,000 -4,380 Level Aus ATC (Calculated)
02:05AM -30.4926 152.9254 224° Southwest 266 306 9,200 -4,860 Descending Aus ATC (RADAR)
02:06AM -30.5573 152.8509 225° Southwest 313 360 11,200 1,560 Climbing Aus ATC (RADAR)
02:07AM -30.6321 152.7655 224° Southwest 383 441 12,500 1,980 Climbing Aus ATC (RADAR)
02:08AM -30.6824 152.7048 226° Southwest 389 448 14,500 2,520 Climbing Aus ATC (RADAR)
02:08AM -30.7510 152.6313 223° Southwest 402 463 16,300 2,100 Climbing Aus ATC (RADAR)
02:09AM -30.8320 152.5378 225° Southwest 413 475 18,400 2,100 Climbing Aus ATC (RADAR)
02:10AM -30.8801 152.4828 225° Southwest 415 478 19,700 1,800 Climbing Aus ATC (RADAR)
02:11AM -30.9570 152.3938 225° Southwest 426 490 21,100 1,620 Climbing Aus ATC (RADAR)
02:12AM -31.0371 152.3035 224° Southwest 439 505 22,700 1,560 Climbing Aus ATC (RADAR)
02:12AM -31.0952 152.2358 225° Southwest 445 512 23,600 1,260 Climbing Aus ATC (RADAR)
02:13AM -31.1178 152.2102 224° Southwest 449 517 23,900 780 Climbing Aus ATC (RADAR)
02:13AM -31.1340 152.1910 225° Southwest 450 518 24,000 1,500 Climbing FlightAware
02:13AM -31.1694 152.1502 225° Southwest 451 519 24,800 1,320 Climbing Aus ATC (RADAR)
02:14AM -31.2030 152.1110 225° Southwest 456 525 25,000 1,080 Climbing FlightAware
02:14AM -31.2524 152.0549 225° Southwest 458 527 25,800 1,020 Climbing Aus ATC (RADAR)
02:14AM -31.2560 152.0500 225° Southwest 456 525 25,600 1,020 Descending FlightAware
02:15AM -31.3056 151.9931 225° Southwest 464 534 26,400 1,080 Climbing Aus ATC (RADAR)
02:15AM -31.3310 151.9640 225° Southwest 461 531 26,500 1,440 Climbing FlightAware
02:16AM -31.3822 151.9047 225° Southwest 465 535 27,600 1,620 Climbing Aus ATC (RADAR)
02:16AM -31.3930 151.8920 225° Southwest 456 525 27,600 2,040 Level FlightAware
02:16AM -31.4373 151.8463 225° Southwest 460 529 28,800 2,220 Climbing Aus ATC (RADAR)
02:16AM -31.4580 151.8280 225° Southwest 442 509 29,100 1,200 Climbing FlightAware
02:17AM -31.5260 151.7540 223° Southwest 443 510 30,000 600 Climbing FlightAware
02:18AM -31.5690 151.6740 238° Southwest 443 510 30,000 180 Level FlightAware
02:18AM -31.5890 151.6400 238° Southwest 432 497 30,200 300 Climbing Aus ATC (RADAR)
02:18AM -31.6115 151.6000 237° Southwest 430 495 30,200 -540 Level Aus ATC (RADAR)
02:19AM -31.6140 151.5940 237° Southwest 446 513 30,000 -300 Descending FlightAware
02:19AM -31.6540 151.5220 237° Southwest 446 513 30,000  Level FlightAware
02:20AM -31.7100 151.4210 237° Southwest 446 513 30,000  Level FlightAware
02:21AM -31.7610 151.3300 237° Southwest 443 510 30,000 240 Level FlightAware
02:21AM -31.7237 151.3969 237° Southwest 446 513 30,300  Climbing Aus ATC (RADAR)
02:21AM -31.8180 151.2630 237° Southwest 436 502 30,000 -300 Descending FlightAware
02:22AM -31.9190 151.2330 194° South 434 499 30,000 120 Level FlightAware
02:23AM -31.9377 151.2306 194° South 433 498 30,200  Climbing Aus ATC (RADAR)
02:23AM -31.9920 151.2230 194° South 433 498 30,000 -240 Descending FlightAware
02:24AM -32.0880 151.2090 187° South 432 497 30,000 120 Level FlightAware
02:24AM -32.1764 151.1972 187° South 432 497 30,200  Climbing Aus ATC (RADAR)
02:25AM -32.1980 151.1930 187° South 431 496 30,000 -240 Descending FlightAware
02:25AM -32.2800 151.1820 186° South 432 497 30,000 120 Level FlightAware
02:26AM -32.3546 151.1714 186° South 432 497 30,200  Climbing Aus ATC (RADAR)
02:26AM -32.3610 151.1700 186° South 433 498 30,000 -240 Descending FlightAware
02:27AM -32.4510 151.1570 187° South 435 501 30,000 -660 Level FlightAware
02:27AM -32.5350 151.1450 187° South 433 498 29,100 -1,260 Descending FlightAware
02:28AM -32.5923 151.1372 187° South 420 483 28,700 -1,200 Descending Aus ATC (RADAR)
02:28AM -32.6060 151.1350 187° South 408 470 28,400 -2,760 Descending FlightAware
02:29AM -32.6910 151.1230 187° South 413 475 26,100 -2,700 Descending FlightAware
02:30AM -32.7700 151.1120 187° South 403 464 24,400 -2,340 Descending FlightAware
02:30AM -32.8480 151.1010 187° South 395 455 22,800 -2,280 Descending FlightAware
02:31AM -32.8985 151.0938 187° South 395 455 22,000 -2,280 Descending Aus ATC (RADAR)
02:31AM -32.9300 151.0890 187° South 386 444 21,100 -2,160 Descending FlightAware
02:32AM -32.9900 151.0800 187° South 380 437 20,000 -1,980 Descending FlightAware
02:32AM -33.0559 151.0710 187° South 371 427 18,900 -2,040 Descending Aus ATC (RADAR)
02:32AM -33.0670 151.0690 187° South 371 427 18,500 -2,040 Descending FlightAware
02:33AM -33.1410 151.0590 186° South 362 417 17,000 -1,980 Descending FlightAware
02:34AM -33.2060 151.0490 187° South 353 406 15,700 -2,100 Descending FlightAware
02:34AM -33.2790 151.0520 178° South 353 406 14,100 -2,100 Descending FlightAware
02:35AM -33.3431 151.0646 178° South 348 400 13,000 -1,980 Descending Aus ATC (RADAR)
02:35AM -33.3440 151.0650 178° South 344 396 12,800 -1,860 Descending FlightAware
02:36AM -33.4090 151.0770 171° South 335 386 11,600 -1,800 Descending FlightAware
02:37AM -33.4770 151.0900 171° South 324 373 10,300 -1,200 Descending FlightAware
02:37AM -33.5320 151.1010 171° South 294 338 9,900 -900 Descending FlightAware
02:38AM -33.5730 151.1090 171° South 302 348 9,300 -1,140 Descending FlightAware
02:38AM -33.6090 151.1160 171° South 294 338 8,900 -420 Descending FlightAware
02:38AM -33.6382 151.1214 171° South 299 344 9,000 -240 Climbing Aus ATC (RADAR)
02:39AM -33.6470 151.1230 171° South 300 345 8,800 -240 Descending FlightAware
02:39AM -33.6710 151.1280 170° South 300 345 8,900 120 Climbing FlightAware
02:39AM -33.6980 151.1330 171° South 297 342 8,900  Level FlightAware
02:40AM -33.7410 151.1420 170° South 298 343 8,900  Level FlightAware
02:40AM -33.7720 151.1540 162° South 301 346 8,900 -240 Level FlightAware
02:41AM -33.8090 151.1890 142° Southeast 299 344 8,700 -1,140 Descending FlightAware
02:41AM -33.8420 151.2210 141° Southeast 303 349 7,700 -1,860 Descending FlightAware
02:42AM -33.8670 151.2460 140° Southeast 304 350 7,000 -1,320 Descending FlightAware
02:42AM -33.8980 151.2770 140° Southeast 294 338 6,500 -1,080 Descending FlightAware
02:43AM -33.9430 151.3220 140° Southeast 288 331 5,800 -540 Descending FlightAware
02:43AM -33.9672 151.3465 140° Southeast 267 307 6,000 180 Climbing Aus ATC (RADAR)
02:43AM -33.9660 151.3450 140° Southeast 264 304 5,900 -300 Descending FlightAware
02:44AM -33.9860 151.3630 143° Southeast 250 288 5,900  Level FlightAware
02:44AM -34.0130 151.3720 165° South 248 285 5,900  Level FlightAware
02:44AM -34.0360 151.3800 164° South 249 287 5,900 120 Level FlightAware
02:45AM -34.0693 151.3912 164° South 246 283 6,000 -1,020 Climbing Aus ATC (RADAR)
02:46AM -34.1557 151.3584 197° South 226 260 4,000 -1,020 Descending Aus ATC (RADAR)
02:47AM -34.1775 151.3265 230° Southwest 209 241 3,800 -480 Descending Aus ATC (RADAR)
02:47AM -34.1740 151.3320 230° Southwest 205 236 3,700 -1,260 Descending FlightAware
02:48AM -34.1940 151.2860 242° Southwest 195 224 2,800 -1,320 Descending FlightAware
02:48AM -34.1880 151.2730 299° West 193 222 2,400 -1,200 Descending FlightAware
02:48AM -34.1770 151.2620 320° Northwest 191 220 2,200 -780 Descending FlightAware
02:49AM -34.1580 151.2450 323° Northwest 187 215 1,900 -480 Descending FlightAware
02:49AM -34.1480 151.2350 320° Northwest 191 220 1,900  Level FlightAware
02:49AM -34.1350 151.2270 333° Northwest 195 224 1,900  Level FlightAware
02:50AM -34.1090 151.2180 344° North 196 226 1,900  Level FlightAware
02:50AM -34.0860 151.2120 348° North 195 224 1,900 120 Level FlightAware
02:50AM -34.0684 151.2077 348° North 190 219 2,000 -240 Climbing Aus ATC (RADAR)
02:51AM -34.0610 151.2060 348° North 179 206 1,800 -960 Descending FlightAware
02:51AM -34.0410 151.2010 348° North 153 176 1,400 -900 Descending FlightAware
02:51AM -34.0320 151.1980 345° North 136 157 1,200 -840 Descending FlightAware
02:52AM -34.0130 151.1930 348° North 131 151 800 -540 Descending FlightAware
02:52AM -34.0010 151.1903 348° North 129 148 800 -480 Level Aus ATC (RADAR)
02:52AM -33.9980 151.1890 348° North 131 151 600 -840 Descending FlightAware
02:52AM -33.9830 151.1856 348° North 130 150 400 -840 Descending Aus ATC (RADAR)
02:53AM -33.9800 151.1850 348° North 129 148 200 -240 Descending FlightAware
02:53AM -33.9650 151.1810 348° North 121 139 -120 Descending FlightAware
02:54AM -33.9470 151.1760 347° North 34 39 60 Level FlightAware
02:54AM -33.9442 151.1770 347° North 39 45 100 360 Climbing Aus ATC (RADAR)
02:54AM -33.9440 151.1770 347° North 25 29 -720 Descending FlightAware
02:55AM -33.9400 151.1770 360° North 28 32  Level FlightAware
02:55AM -33.9390 151.1760 320° Northwest 15 17  Level FlightAware
02:55AM -33.9380 151.1790 68° East 19 22  Level FlightAware
02:56AM -33.9370 151.1820 68° East 22 25  Level FlightAware
02:57AM -33.9360 151.1860 73° East 12 14  Level FlightAware
02:57AM -33.9360 151.1850 270° West 7 8  Level FlightAware
03:00AM -33.9460 151.1771 225° Southwest  Level FlightAware Approximate
03:01AM -33.9461 151.1772 225° Southwest  Level Estimated